Airfield :
LOGIN :

Register | Disclaimer

   EN    FR    IT 

 










Legend :    VFR   Marginal VFR   IFR   Intensive IFR   Very Intensive IFR
Visi :
Ceiling :
>= 8 km
>= 3000ft
5 to 8 km
1000 to 3000 ft
1500m to 5 km
500 to 1000 ft
800 to 1500m
200 to 500 ft
< 800m
< 200 ft
Symbols :   Thunderstorms  Fog  Heavy snow  Heavy precipitations  Wind > 20 kt
SIGMETs :     Misc.  Thunderstorms  Icing  Turbulence  Mountain Waves  Volcanic Ashes






- Airport Elevation : 1411 ft
- IATA code : GVA


LSGG - Genève Cointrin

CURRENT METAR :
  • 082150Z VRB01KT 9999 FEW008 SCT035 BKN095 02/01 Q1004 NOSIG

EXPIRED METARs :
  • 082120Z VRB01KT 9999 FEW029 BKN038 02/01 Q1004 NOSIG
  • 082050Z VRB02KT 9999 FEW004 BKN031 02/02 Q1004 NOSIG
  • 082020Z 26004KT 9999 FEW004 SCT090 02/01 Q1003 NOSIG
  • 081950Z 26002KT 9999 FEW003 SCT035 02/01 Q1003 NOSIG
  • 081920Z 21003KT 9999 FEW006 SCT032 BKN085 02/02 Q1003 NOSIG

TAF TAF LSGG
Valid from the 08 at 21:00 until the 10 at 03:00 UTC


082025Z 0821/1003 25003KT 9999 FEW005 SCT030 TX04/0915Z TN00/0906Z
PROB40
TEMPO 0822/0906 4000 -SHSN BKN010
ATIS : +41 22 417 40 81



MET'MAP, your aeronautical weather chart ! - Copyright ORBIFLY December 2007 - Disclaimer

ORBIFLY MET'MAP TEAM :

Programming & Development : Alexandra Zaïnal
Concept & original design : Baudouin d'Aumeries
Assistance for programming : Marc-Olivier Méhu
Technical & hardware support : Manuel Goepfert

Contact : metmap@orbifly.com




SOURCES & CREDITS :

   NOAA